RYR83PZ EPKK-LROP
Flight info
| Callsign | RYR83PZ |
|---|---|
| Flight time | 1h 12m |
| Altitude | 37000 |
| Route | REGTO DCT RAZEC DCT KEKED DCT BADOR DCT ATSOS DCT IRLOX DCT BIVBU DCT TOSVI |
| Aircraft | B738/M-SDE2E3FGHIRWXY/LB1 |
Departure
| Time | 2026-05-07 19:13 |
|---|---|
| Airport | Kraków John Paul II International Airport (EPKK) |
Arrival
| Time | 2026-05-07 20:25 |
|---|---|
| Airport | Bucharest Henri Coandă International Airport (LROP) |
| Time | Latitude | Longitude | Altitude | Speed | Heading |
|---|---|---|---|---|---|
| 2026-05-07 18:46 | 50.07306 | 19.80009 | 786 ft | 0 kts | 167° |
| 2026-05-07 19:01 | 50.07311 | 19.80007 | 789 ft | 2 kts | 167° |
| 2026-05-07 19:02 | 50.07327 | 19.80002 | 789 ft | 2 kts | 167° |
| 2026-05-07 19:02 | 50.07343 | 19.79996 | 789 ft | 2 kts | 168° |
| 2026-05-07 19:02 | 50.07359 | 19.79990 | 789 ft | 2 kts | 148° |
| 2026-05-07 19:02 | 50.07369 | 19.79974 | 789 ft | 1 kts | 87° |
| 2026-05-07 19:03 | 50.07368 | 19.79965 | 789 ft | 0 kts | 78° |
| 2026-05-07 19:05 | 50.07369 | 19.79966 | 789 ft | 0 kts | 78° |
| 2026-05-07 19:05 | 50.07373 | 19.79982 | 789 ft | 3 kts | 62° |
| 2026-05-07 19:06 | 50.07390 | 19.80016 | 789 ft | 5 kts | 51° |
| 2026-05-07 19:06 | 50.07421 | 19.80165 | 789 ft | 9 kts | 79° |
| 2026-05-07 19:06 | 50.07435 | 19.80267 | 789 ft | 10 kts | 78° |
| 2026-05-07 19:07 | 50.07465 | 19.80370 | 789 ft | 11 kts | 33° |
| 2026-05-07 19:07 | 50.07541 | 19.80411 | 789 ft | 12 kts | 17° |
| 2026-05-07 19:07 | 50.07627 | 19.80412 | 789 ft | 13 kts | 349° |
| 2026-05-07 19:07 | 50.07714 | 19.80381 | 789 ft | 13 kts | 347° |
| 2026-05-07 19:08 | 50.07799 | 19.80352 | 789 ft | 12 kts | 347° |
| 2026-05-07 19:08 | 50.07836 | 19.80339 | 789 ft | 0 kts | 348° |
| 2026-05-07 19:11 | 50.07859 | 19.80331 | 789 ft | 5 kts | 348° |
| 2026-05-07 19:11 | 50.07891 | 19.80320 | 789 ft | 5 kts | 347° |
| 2026-05-07 19:11 | 50.07923 | 19.80309 | 789 ft | 5 kts | 347° |
| 2026-05-07 19:11 | 50.07960 | 19.80295 | 788 ft | 6 kts | 347° |
| 2026-05-07 19:12 | 50.08000 | 19.80261 | 788 ft | 8 kts | 309° |
| 2026-05-07 19:12 | 50.08010 | 19.80182 | 789 ft | 7 kts | 265° |
| 2026-05-07 19:12 | 50.08001 | 19.80104 | 789 ft | 7 kts | 258° |
| 2026-05-07 19:12 | 50.07972 | 19.79885 | 788 ft | 41 kts | 257° |
| 2026-05-07 19:13 | 50.07856 | 19.79067 | 790 ft | 119 kts | 258° |
| 2026-05-07 19:13 | 50.07622 | 19.77436 | 923 ft | 183 kts | 257° |
| 2026-05-07 19:13 | 50.07335 | 19.75368 | 1783 ft | 197 kts | 258° |
| 2026-05-07 19:13 | 50.07069 | 19.73467 | 3537 ft | 153 kts | 258° |
| 2026-05-07 19:14 | 50.06859 | 19.72079 | 4994 ft | 122 kts | 258° |
| 2026-05-07 19:14 | 50.06633 | 19.70571 | 4973 ft | 177 kts | 258° |
| 2026-05-07 19:14 | 50.06309 | 19.68318 | 4436 ft | 242 kts | 258° |
| 2026-05-07 19:14 | 50.05954 | 19.65822 | 5440 ft | 216 kts | 258° |
| 2026-05-07 19:15 | 50.05683 | 19.63862 | 7236 ft | 162 kts | 258° |
| 2026-05-07 19:15 | 50.05466 | 19.62232 | 8155 ft | 159 kts | 258° |
| 2026-05-07 19:15 | 50.05211 | 19.60277 | 7790 ft | 219 kts | 258° |
| 2026-05-07 19:15 | 50.04653 | 19.57653 | 6818 ft | 278 kts | 236° |
| 2026-05-07 19:16 | 50.03155 | 19.55911 | 7249 ft | 274 kts | 198° |
| 2026-05-07 19:16 | 50.01228 | 19.55880 | 8148 ft | 281 kts | 166° |
| 2026-05-07 19:16 | 49.99468 | 19.57183 | 9138 ft | 285 kts | 147° |
| 2026-05-07 19:16 | 49.98028 | 19.59326 | 10007 ft | 291 kts | 133° |
| 2026-05-07 19:17 | 49.96748 | 19.61812 | 10530 ft | 307 kts | 130° |
| 2026-05-07 19:17 | 49.95357 | 19.64630 | 10716 ft | 334 kts | 130° |
| 2026-05-07 19:17 | 49.93869 | 19.67615 | 10911 ft | 358 kts | 130° |
| 2026-05-07 19:17 | 49.92297 | 19.70707 | 11370 ft | 370 kts | 130° |
| 2026-05-07 19:18 | 49.90676 | 19.73810 | 12095 ft | 374 kts | 132° |
| 2026-05-07 19:18 | 49.88977 | 19.76947 | 12897 ft | 376 kts | 133° |
| 2026-05-07 19:18 | 49.87277 | 19.80047 | 13703 ft | 378 kts | 133° |
| 2026-05-07 19:18 | 49.85573 | 19.83159 | 14394 ft | 382 kts | 133° |
| 2026-05-07 19:19 | 49.83866 | 19.86298 | 15033 ft | 386 kts | 133° |
| 2026-05-07 19:19 | 49.82136 | 19.89500 | 15668 ft | 389 kts | 133° |
| 2026-05-07 19:19 | 49.80962 | 19.91682 | 16103 ft | 392 kts | 133° |
| 2026-05-07 19:19 | 49.78648 | 19.95993 | 16972 ft | 396 kts | 133° |
| 2026-05-07 19:20 | 49.76880 | 19.99289 | 17613 ft | 400 kts | 133° |
| 2026-05-07 19:20 | 49.75664 | 20.01556 | 18040 ft | 402 kts | 133° |
| 2026-05-07 19:20 | 49.73867 | 20.04904 | 18625 ft | 406 kts | 133° |
| 2026-05-07 19:20 | 49.72066 | 20.08259 | 19194 ft | 407 kts | 133° |
| 2026-05-07 19:21 | 49.70257 | 20.11621 | 19796 ft | 408 kts | 133° |
| 2026-05-07 19:21 | 49.68440 | 20.14995 | 20352 ft | 410 kts | 133° |
| 2026-05-07 19:21 | 49.66619 | 20.18370 | 20893 ft | 413 kts | 133° |
| 2026-05-07 19:21 | 49.64778 | 20.21777 | 21421 ft | 415 kts | 133° |
| 2026-05-07 19:22 | 49.62903 | 20.25242 | 21938 ft | 418 kts | 133° |
| 2026-05-07 19:22 | 49.61041 | 20.28678 | 22424 ft | 421 kts | 133° |
| 2026-05-07 19:22 | 49.59160 | 20.32147 | 22896 ft | 424 kts | 133° |
| 2026-05-07 19:22 | 49.57259 | 20.35646 | 23370 ft | 427 kts | 134° |
| 2026-05-07 19:23 | 49.55352 | 20.39154 | 23783 ft | 430 kts | 134° |
| 2026-05-07 19:23 | 49.53408 | 20.42724 | 24162 ft | 433 kts | 134° |
| 2026-05-07 19:23 | 49.51478 | 20.46264 | 24526 ft | 436 kts | 134° |
| 2026-05-07 19:23 | 49.49527 | 20.49839 | 24877 ft | 438 kts | 134° |
| 2026-05-07 19:24 | 49.47564 | 20.53429 | 25240 ft | 441 kts | 134° |
| 2026-05-07 19:24 | 49.45573 | 20.57069 | 25613 ft | 443 kts | 134° |
| 2026-05-07 19:24 | 49.43570 | 20.60724 | 25958 ft | 446 kts | 134° |
| 2026-05-07 19:24 | 49.41608 | 20.64297 | 26298 ft | 448 kts | 134° |
| 2026-05-07 19:25 | 49.39522 | 20.67983 | 26632 ft | 449 kts | 137° |
| 2026-05-07 19:25 | 49.37328 | 20.71399 | 26967 ft | 449 kts | 140° |
| 2026-05-07 19:25 | 49.35046 | 20.74735 | 27305 ft | 451 kts | 141° |
| 2026-05-07 19:25 | 49.32785 | 20.77997 | 27607 ft | 453 kts | 141° |
| 2026-05-07 19:26 | 49.30476 | 20.81352 | 27923 ft | 455 kts | 141° |
| 2026-05-07 19:26 | 49.28194 | 20.84707 | 28224 ft | 458 kts | 141° |
| 2026-05-07 19:26 | 49.25915 | 20.88085 | 28635 ft | 457 kts | 141° |
| 2026-05-07 19:26 | 49.23643 | 20.91469 | 29128 ft | 455 kts | 141° |
| 2026-05-07 19:27 | 49.21357 | 20.94871 | 29640 ft | 452 kts | 141° |
| 2026-05-07 19:27 | 49.19125 | 20.98183 | 30067 ft | 451 kts | 141° |
| 2026-05-07 19:27 | 49.16869 | 21.01521 | 30414 ft | 451 kts | 141° |
| 2026-05-07 19:27 | 49.14605 | 21.04810 | 30782 ft | 448 kts | 144° |
| 2026-05-07 19:28 | 49.12103 | 21.07635 | 31126 ft | 438 kts | 158° |
| 2026-05-07 19:28 | 49.09303 | 21.09150 | 31512 ft | 427 kts | 170° |
| 2026-05-07 19:28 | 49.06430 | 21.10115 | 31940 ft | 423 kts | 172° |
| 2026-05-07 19:28 | 49.03489 | 21.11056 | 32268 ft | 423 kts | 171° |
| 2026-05-07 19:29 | 49.00611 | 21.12104 | 32551 ft | 425 kts | 169° |
| 2026-05-07 19:29 | 48.97760 | 21.13295 | 32900 ft | 425 kts | 168° |
| 2026-05-07 19:29 | 48.94911 | 21.14485 | 33280 ft | 422 kts | 169° |
| 2026-05-07 19:29 | 48.92093 | 21.15594 | 33628 ft | 421 kts | 170° |
| 2026-05-07 19:30 | 48.89216 | 21.16656 | 33938 ft | 420 kts | 171° |
| 2026-05-07 19:30 | 48.86382 | 21.17650 | 34197 ft | 420 kts | 171° |
| 2026-05-07 19:30 | 48.83560 | 21.18611 | 34381 ft | 422 kts | 171° |
| 2026-05-07 19:30 | 48.80623 | 21.19597 | 34576 ft | 423 kts | 171° |
| 2026-05-07 19:31 | 48.77765 | 21.20555 | 34791 ft | 424 kts | 171° |
| 2026-05-07 19:31 | 48.74871 | 21.21660 | 35000 ft | 427 kts | 166° |
| 2026-05-07 19:31 | 48.72123 | 21.23465 | 35127 ft | 437 kts | 153° |
| 2026-05-07 19:31 | 48.69656 | 21.26226 | 35357 ft | 442 kts | 145° |
| 2026-05-07 19:32 | 48.67313 | 21.29218 | 35591 ft | 442 kts | 145° |
| 2026-05-07 19:32 | 48.64890 | 21.32098 | 35749 ft | 441 kts | 149° |
| 2026-05-07 19:32 | 48.62355 | 21.34662 | 35925 ft | 440 kts | 152° |
| 2026-05-07 19:32 | 48.59733 | 21.37101 | 36134 ft | 440 kts | 153° |
| 2026-05-07 19:33 | 48.57145 | 21.39486 | 36333 ft | 440 kts | 153° |
| 2026-05-07 19:33 | 48.54519 | 21.41957 | 36532 ft | 441 kts | 152° |
| 2026-05-07 19:33 | 48.51912 | 21.44476 | 36747 ft | 442 kts | 152° |
| 2026-05-07 19:33 | 48.49330 | 21.47027 | 36927 ft | 443 kts | 151° |
| 2026-05-07 19:34 | 48.44171 | 21.52213 | 36984 ft | 447 kts | 150° |
| 2026-05-07 19:34 | 48.39039 | 21.57410 | 36988 ft | 444 kts | 150° |
| 2026-05-07 19:35 | 48.33903 | 21.62600 | 36978 ft | 441 kts | 151° |
| 2026-05-07 19:35 | 48.28813 | 21.67722 | 36998 ft | 439 kts | 151° |
| 2026-05-07 19:36 | 48.23761 | 21.72788 | 37006 ft | 438 kts | 151° |
| 2026-05-07 19:36 | 48.18687 | 21.77862 | 37013 ft | 438 kts | 151° |
| 2026-05-07 19:37 | 48.13605 | 21.82932 | 37015 ft | 440 kts | 151° |
| 2026-05-07 19:37 | 48.08509 | 21.88004 | 37017 ft | 442 kts | 151° |
| 2026-05-07 19:38 | 48.03370 | 21.93108 | 37019 ft | 445 kts | 151° |
| 2026-05-07 19:38 | 47.98174 | 21.98256 | 37015 ft | 447 kts | 151° |
| 2026-05-07 19:39 | 47.92988 | 22.03382 | 37014 ft | 449 kts | 151° |
| 2026-05-07 19:39 | 47.87754 | 22.08543 | 37015 ft | 450 kts | 151° |
| 2026-05-07 19:40 | 47.82556 | 22.13656 | 37014 ft | 451 kts | 151° |
| 2026-05-07 19:40 | 47.77311 | 22.18803 | 37008 ft | 451 kts | 151° |
| 2026-05-07 19:41 | 47.72055 | 22.23947 | 37016 ft | 451 kts | 151° |
| 2026-05-07 19:41 | 47.66813 | 22.29065 | 37016 ft | 451 kts | 151° |
| 2026-05-07 19:42 | 47.61594 | 22.34148 | 37014 ft | 451 kts | 151° |
| 2026-05-07 19:42 | 47.56342 | 22.39251 | 37016 ft | 450 kts | 151° |
| 2026-05-07 19:43 | 47.51103 | 22.44329 | 37020 ft | 450 kts | 151° |
| 2026-05-07 19:43 | 47.45844 | 22.49413 | 37026 ft | 450 kts | 151° |
| 2026-05-07 19:44 | 47.40591 | 22.54480 | 37015 ft | 451 kts | 151° |
| 2026-05-07 19:44 | 47.35349 | 22.59524 | 37023 ft | 450 kts | 151° |
| 2026-05-07 19:45 | 47.30103 | 22.64559 | 37023 ft | 451 kts | 151° |
| 2026-05-07 19:45 | 47.24846 | 22.69592 | 37020 ft | 452 kts | 151° |
| 2026-05-07 19:46 | 47.19568 | 22.74634 | 37033 ft | 452 kts | 151° |
| 2026-05-07 19:46 | 47.14301 | 22.79654 | 37036 ft | 453 kts | 151° |
| 2026-05-07 19:47 | 47.09004 | 22.84689 | 37035 ft | 453 kts | 151° |
| 2026-05-07 19:47 | 47.03686 | 22.89733 | 37039 ft | 454 kts | 151° |
| 2026-05-07 19:48 | 46.98368 | 22.94764 | 37029 ft | 455 kts | 151° |
| 2026-05-07 19:48 | 46.93048 | 22.99786 | 37034 ft | 455 kts | 151° |
| 2026-05-07 19:49 | 46.87733 | 23.04790 | 37039 ft | 456 kts | 151° |
| 2026-05-07 19:49 | 46.82393 | 23.09807 | 37042 ft | 456 kts | 151° |
| 2026-05-07 19:50 | 46.77040 | 23.14824 | 37040 ft | 456 kts | 151° |
| 2026-05-07 19:50 | 46.71713 | 23.19804 | 37045 ft | 456 kts | 151° |
| 2026-05-07 19:51 | 46.67238 | 23.23978 | 37042 ft | 456 kts | 151° |
| 2026-05-07 19:51 | 46.61030 | 23.29755 | 37037 ft | 456 kts | 151° |
| 2026-05-07 19:52 | 46.56567 | 23.33899 | 37041 ft | 456 kts | 151° |
| 2026-05-07 19:52 | 46.51226 | 23.38846 | 37040 ft | 455 kts | 151° |
| 2026-05-07 19:53 | 46.45879 | 23.43788 | 37042 ft | 454 kts | 151° |
| 2026-05-07 19:53 | 46.40557 | 23.48695 | 37046 ft | 455 kts | 152° |
| 2026-05-07 19:54 | 46.35218 | 23.53606 | 37040 ft | 455 kts | 152° |
| 2026-05-07 19:54 | 46.29880 | 23.58504 | 37042 ft | 455 kts | 152° |
| 2026-05-07 19:55 | 46.24519 | 23.63413 | 37037 ft | 454 kts | 152° |
| 2026-05-07 19:55 | 46.19168 | 23.68301 | 37036 ft | 455 kts | 152° |
| 2026-05-07 19:56 | 46.13833 | 23.73162 | 37039 ft | 455 kts | 152° |
| 2026-05-07 19:56 | 46.08477 | 23.78031 | 37034 ft | 455 kts | 152° |
| 2026-05-07 19:57 | 46.03105 | 23.82905 | 37041 ft | 456 kts | 152° |
| 2026-05-07 19:57 | 45.97727 | 23.87771 | 37042 ft | 456 kts | 152° |
| 2026-05-07 19:58 | 45.92364 | 23.92613 | 37046 ft | 457 kts | 152° |
| 2026-05-07 19:58 | 45.86999 | 23.97446 | 37048 ft | 457 kts | 152° |
| 2026-05-07 19:59 | 45.81582 | 24.02315 | 37050 ft | 458 kts | 152° |
| 2026-05-07 19:59 | 45.76185 | 24.07155 | 37048 ft | 458 kts | 152° |
| 2026-05-07 20:00 | 45.70783 | 24.11989 | 37048 ft | 459 kts | 152° |
| 2026-05-07 20:00 | 45.65348 | 24.16762 | 37042 ft | 457 kts | 155° |
| 2026-05-07 20:01 | 45.62481 | 24.18627 | 37023 ft | 451 kts | 168° |
| 2026-05-07 20:01 | 45.59411 | 24.19337 | 37099 ft | 442 kts | 180° |
| 2026-05-07 20:01 | 45.53231 | 24.19873 | 36947 ft | 447 kts | 177° |
| 2026-05-07 20:02 | 45.50134 | 24.20531 | 36650 ft | 451 kts | 173° |
| 2026-05-07 20:02 | 45.47065 | 24.21380 | 36400 ft | 448 kts | 172° |
| 2026-05-07 20:02 | 45.44028 | 24.22231 | 36132 ft | 444 kts | 173° |
| 2026-05-07 20:02 | 45.40997 | 24.23018 | 35896 ft | 443 kts | 174° |
| 2026-05-07 20:03 | 45.37963 | 24.23736 | 35308 ft | 443 kts | 174° |
| 2026-05-07 20:03 | 45.34923 | 24.24400 | 34729 ft | 442 kts | 175° |
| 2026-05-07 20:03 | 45.31868 | 24.25037 | 34004 ft | 443 kts | 175° |
| 2026-05-07 20:03 | 45.28836 | 24.25657 | 33246 ft | 443 kts | 175° |
| 2026-05-07 20:04 | 45.25786 | 24.26277 | 32503 ft | 443 kts | 174° |
| 2026-05-07 20:04 | 45.22710 | 24.26906 | 31752 ft | 443 kts | 174° |
| 2026-05-07 20:04 | 45.19711 | 24.27521 | 30988 ft | 444 kts | 174° |
| 2026-05-07 20:04 | 45.16581 | 24.28164 | 30209 ft | 446 kts | 173° |
| 2026-05-07 20:05 | 45.13521 | 24.28796 | 29273 ft | 447 kts | 173° |
| 2026-05-07 20:05 | 45.10453 | 24.29430 | 28167 ft | 447 kts | 173° |
| 2026-05-07 20:05 | 45.07389 | 24.30063 | 26888 ft | 445 kts | 173° |
| 2026-05-07 20:05 | 45.04302 | 24.30699 | 25694 ft | 443 kts | 173° |
| 2026-05-07 20:06 | 45.01287 | 24.31319 | 24664 ft | 438 kts | 173° |
| 2026-05-07 20:06 | 44.98306 | 24.31937 | 23714 ft | 432 kts | 172° |
| 2026-05-07 20:06 | 44.95425 | 24.33002 | 22553 ft | 430 kts | 156° |
| 2026-05-07 20:06 | 44.93016 | 24.35478 | 21480 ft | 430 kts | 134° |
| 2026-05-07 20:07 | 44.91329 | 24.38956 | 20663 ft | 423 kts | 120° |
| 2026-05-07 20:07 | 44.90102 | 24.42629 | 20012 ft | 412 kts | 113° |
| 2026-05-07 20:07 | 44.89192 | 24.46450 | 19436 ft | 401 kts | 108° |
| 2026-05-07 20:07 | 44.88472 | 24.50211 | 18878 ft | 393 kts | 106° |
| 2026-05-07 20:08 | 44.87821 | 24.53886 | 18331 ft | 386 kts | 105° |
| 2026-05-07 20:08 | 44.87166 | 24.57544 | 17726 ft | 387 kts | 106° |
| 2026-05-07 20:08 | 44.86465 | 24.61313 | 17163 ft | 403 kts | 107° |
| 2026-05-07 20:08 | 44.85732 | 24.65120 | 16552 ft | 404 kts | 107° |
| 2026-05-07 20:09 | 44.84994 | 24.68877 | 15965 ft | 392 kts | 108° |
| 2026-05-07 20:09 | 44.84271 | 24.72505 | 15406 ft | 379 kts | 108° |
| 2026-05-07 20:09 | 44.83555 | 24.76070 | 14879 ft | 370 kts | 108° |
| 2026-05-07 20:10 | 44.82175 | 24.82897 | 13876 ft | 363 kts | 108° |
| 2026-05-07 20:10 | 44.81466 | 24.86377 | 13327 ft | 379 kts | 108° |
| 2026-05-07 20:10 | 44.80723 | 24.90021 | 12680 ft | 381 kts | 108° |
| 2026-05-07 20:10 | 44.80023 | 24.93477 | 12109 ft | 369 kts | 108° |
| 2026-05-07 20:11 | 44.79323 | 24.96932 | 11563 ft | 357 kts | 109° |
| 2026-05-07 20:11 | 44.78649 | 25.00249 | 11059 ft | 350 kts | 109° |
| 2026-05-07 20:11 | 44.77976 | 25.03541 | 10718 ft | 339 kts | 109° |
| 2026-05-07 20:11 | 44.77332 | 25.06694 | 10588 ft | 334 kts | 109° |
| 2026-05-07 20:12 | 44.76682 | 25.09856 | 10451 ft | 336 kts | 109° |
| 2026-05-07 20:12 | 44.76050 | 25.12942 | 10279 ft | 320 kts | 109° |
| 2026-05-07 20:12 | 44.75454 | 25.15855 | 10141 ft | 302 kts | 110° |
| 2026-05-07 20:12 | 44.74817 | 25.18579 | 10020 ft | 285 kts | 114° |
| 2026-05-07 20:13 | 44.74092 | 25.21121 | 9812 ft | 273 kts | 117° |
| 2026-05-07 20:13 | 44.73319 | 25.23505 | 9547 ft | 264 kts | 119° |
| 2026-05-07 20:13 | 44.72551 | 25.25805 | 9284 ft | 261 kts | 119° |
| 2026-05-07 20:13 | 44.71785 | 25.28118 | 9023 ft | 262 kts | 118° |
| 2026-05-07 20:14 | 44.71005 | 25.30505 | 8772 ft | 272 kts | 118° |
| 2026-05-07 20:14 | 44.70211 | 25.32967 | 8487 ft | 278 kts | 117° |
| 2026-05-07 20:14 | 44.69432 | 25.35417 | 8174 ft | 273 kts | 117° |
| 2026-05-07 20:14 | 44.68671 | 25.37832 | 7881 ft | 266 kts | 117° |
| 2026-05-07 20:15 | 44.67937 | 25.40169 | 7597 ft | 259 kts | 117° |
| 2026-05-07 20:15 | 44.67219 | 25.42457 | 7325 ft | 255 kts | 117° |
| 2026-05-07 20:15 | 44.66497 | 25.44757 | 7077 ft | 256 kts | 117° |
| 2026-05-07 20:15 | 44.65777 | 25.47053 | 6837 ft | 255 kts | 117° |
| 2026-05-07 20:16 | 44.65084 | 25.49269 | 6587 ft | 242 kts | 117° |
| 2026-05-07 20:16 | 44.64427 | 25.51370 | 6325 ft | 230 kts | 117° |
| 2026-05-07 20:16 | 44.63797 | 25.53381 | 6054 ft | 218 kts | 117° |
| 2026-05-07 20:16 | 44.63208 | 25.55262 | 5807 ft | 207 kts | 117° |
| 2026-05-07 20:17 | 44.62640 | 25.57070 | 5579 ft | 197 kts | 117° |
| 2026-05-07 20:17 | 44.62092 | 25.58813 | 5371 ft | 190 kts | 117° |
| 2026-05-07 20:17 | 44.61562 | 25.60496 | 5193 ft | 189 kts | 117° |
| 2026-05-07 20:17 | 44.61033 | 25.62174 | 5006 ft | 190 kts | 117° |
| 2026-05-07 20:18 | 44.60494 | 25.63884 | 4823 ft | 191 kts | 117° |
| 2026-05-07 20:18 | 44.59962 | 25.65572 | 4611 ft | 193 kts | 116° |
| 2026-05-07 20:18 | 44.59411 | 25.67318 | 4413 ft | 194 kts | 116° |
| 2026-05-07 20:18 | 44.58860 | 25.69068 | 4207 ft | 195 kts | 116° |
| 2026-05-07 20:19 | 44.58316 | 25.70793 | 3983 ft | 192 kts | 116° |
| 2026-05-07 20:19 | 44.57781 | 25.72490 | 3801 ft | 187 kts | 116° |
| 2026-05-07 20:19 | 44.57263 | 25.74134 | 3721 ft | 183 kts | 116° |
| 2026-05-07 20:19 | 44.56743 | 25.75775 | 3656 ft | 187 kts | 116° |
| 2026-05-07 20:20 | 44.56212 | 25.77452 | 3597 ft | 190 kts | 116° |
| 2026-05-07 20:20 | 44.55680 | 25.79135 | 3500 ft | 188 kts | 116° |
| 2026-05-07 20:20 | 44.55151 | 25.80802 | 3402 ft | 187 kts | 116° |
| 2026-05-07 20:20 | 44.54682 | 25.82493 | 3299 ft | 189 kts | 105° |
| 2026-05-07 20:21 | 44.54689 | 25.84331 | 3116 ft | 189 kts | 77° |
| 2026-05-07 20:21 | 44.54946 | 25.86141 | 2986 ft | 187 kts | 84° |
| 2026-05-07 20:21 | 44.55031 | 25.87959 | 2788 ft | 187 kts | 87° |
| 2026-05-07 20:21 | 44.55125 | 25.89685 | 2586 ft | 168 kts | 85° |
| 2026-05-07 20:22 | 44.55232 | 25.91217 | 2395 ft | 153 kts | 84° |
| 2026-05-07 20:22 | 44.55339 | 25.92667 | 2232 ft | 150 kts | 84° |
| 2026-05-07 20:22 | 44.55448 | 25.94131 | 2052 ft | 152 kts | 84° |
| 2026-05-07 20:22 | 44.55559 | 25.95626 | 1868 ft | 151 kts | 84° |
| 2026-05-07 20:23 | 44.55667 | 25.97076 | 1693 ft | 151 kts | 84° |
| 2026-05-07 20:23 | 44.55776 | 25.98539 | 1507 ft | 149 kts | 84° |
| 2026-05-07 20:23 | 44.55883 | 25.99966 | 1340 ft | 147 kts | 84° |
| 2026-05-07 20:23 | 44.55988 | 26.01375 | 1159 ft | 144 kts | 84° |
| 2026-05-07 20:24 | 44.56092 | 26.02752 | 995 ft | 140 kts | 84° |
| 2026-05-07 20:24 | 44.56193 | 26.04099 | 831 ft | 138 kts | 84° |
| 2026-05-07 20:24 | 44.56296 | 26.05435 | 669 ft | 137 kts | 84° |
| 2026-05-07 20:24 | 44.56399 | 26.06740 | 522 ft | 136 kts | 84° |
| 2026-05-07 20:25 | 44.56494 | 26.08063 | 354 ft | 136 kts | 84° |
| 2026-05-07 20:25 | 44.56582 | 26.09265 | 321 ft | 110 kts | 85° |
| 2026-05-07 20:25 | 44.56643 | 26.09994 | 322 ft | 58 kts | 83° |
| 2026-05-07 20:25 | 44.56678 | 26.10475 | 321 ft | 24 kts | 84° |
| 2026-05-07 20:26 | 44.56695 | 26.10704 | 322 ft | 23 kts | 75° |
| 2026-05-07 20:26 | 44.56804 | 26.10760 | 321 ft | 18 kts | 354° |
| 2026-05-07 20:26 | 44.56927 | 26.10742 | 321 ft | 17 kts | 354° |
| 2026-05-07 20:26 | 44.57027 | 26.10657 | 320 ft | 18 kts | 302° |
| 2026-05-07 20:27 | 44.57065 | 26.10479 | 322 ft | 20 kts | 264° |
| 2026-05-07 20:27 | 44.57051 | 26.10287 | 322 ft | 20 kts | 263° |
| 2026-05-07 20:27 | 44.57035 | 26.10093 | 321 ft | 21 kts | 264° |
| 2026-05-07 20:27 | 44.57018 | 26.09875 | 320 ft | 23 kts | 263° |
| 2026-05-07 20:28 | 44.57002 | 26.09657 | 321 ft | 22 kts | 264° |
| 2026-05-07 20:28 | 44.56985 | 26.09443 | 321 ft | 22 kts | 264° |
| 2026-05-07 20:28 | 44.56969 | 26.09235 | 321 ft | 21 kts | 264° |
| 2026-05-07 20:28 | 44.56954 | 26.09033 | 321 ft | 21 kts | 264° |
| 2026-05-07 20:29 | 44.56923 | 26.08925 | 321 ft | 8 kts | 187° |
| 2026-05-07 20:29 | 44.56894 | 26.08928 | 321 ft | 1 kts | 173° |
| 2026-05-07 20:29 | 44.56893 | 26.08928 | 321 ft | 0 kts | 174° |